sensor_id;sensor_type;location;lat;lon;timestamp;P1;durP1;ratioP1;P2;durP2;ratioP2
70078;SDS011;57451;52.496;13.456;2023-03-01T00:02:16;25.07;;;10.83;;
70078;SDS011;57451;52.496;13.456;2023-03-01T00:04:44;20.60;;;10.15;;
70078;SDS011;57451;52.496;13.456;2023-03-01T00:07:13;18.70;;;10.68;;
70078;SDS011;57451;52.496;13.456;2023-03-01T00:09:40;25.35;;;11.45;;
70078;SDS011;57451;52.496;13.456;2023-03-01T00:12:07;23.07;;;10.60;;
70078;SDS011;57451;52.496;13.456;2023-03-01T00:14:35;18.83;;;10.63;;
70078;SDS011;57451;52.496;13.456;2023-03-01T00:17:02;19.73;;;10.45;;
70078;SDS011;57451;52.496;13.456;2023-03-01T00:19:29;26.65;;;10.95;;
70078;SDS011;57451;52.496;13.456;2023-03-01T00:21:59;23.25;;;10.85;;
70078;SDS011;57451;52.496;13.456;2023-03-01T00:24:27;17.77;;;9.23;;
70078;SDS011;57451;52.496;13.456;2023-03-01T00:26:54;22.63;;;9.85;;
70078;SDS011;57451;52.496;13.456;2023-03-01T00:29:22;22.88;;;10.43;;
70078;SDS011;57451;52.496;13.456;2023-03-01T00:31:50;22.60;;;10.30;;
70078;SDS011;57451;52.496;13.456;2023-03-01T00:34:18;23.23;;;10.30;;
70078;SDS011;57451;52.496;13.456;2023-03-01T00:36:45;29.27;;;10.33;;
70078;SDS011;57451;52.496;13.456;2023-03-01T00:39:13;21.40;;;9.52;;
70078;SDS011;57451;52.496;13.456;2023-03-01T00:41:42;23.98;;;9.75;;
70078;SDS011;57451;52.496;13.456;2023-03-01T00:44:10;20.75;;;9.75;;
70078;SDS011;57451;52.496;13.456;2023-03-01T00:46:37;26.10;;;10.30;;
70078;SDS011;57451;52.496;13.456;2023-03-01T00:49:05;20.52;;;10.60;;
70078;SDS011;57451;52.496;13.456;2023-03-01T00:51:32;24.55;;;9.70;;
70078;SDS011;57451;52.496;13.456;2023-03-01T00:54:00;21.90;;;9.93;;
70078;SDS011;57451;52.496;13.456;2023-03-01T00:56:29;20.40;;;9.65;;
70078;SDS011;57451;52.496;13.456;2023-03-01T00:58:59;23.47;;;10.77;;
70078;SDS011;57451;52.496;13.456;2023-03-01T01:01:27;20.88;;;9.70;;
70078;SDS011;57451;52.496;13.456;2023-03-01T01:03:59;21.63;;;9.95;;
70078;SDS011;57451;52.496;13.456;2023-03-01T01:06:28;19.55;;;9.68;;
70078;SDS011;57451;52.496;13.456;2023-03-01T01:08:57;17.10;;;8.73;;
70078;SDS011;57451;52.496;13.456;2023-03-01T01:11:25;20.92;;;9.95;;
70078;SDS011;57451;52.496;13.456;2023-03-01T01:13:54;23.02;;;9.43;;
70078;SDS011;57451;52.496;13.456;2023-03-01T01:16:24;21.33;;;10.02;;
70078;SDS011;57451;52.496;13.456;2023-03-01T01:18:53;25.57;;;10.63;;
70078;SDS011;57451;52.496;13.456;2023-03-01T01:21:21;24.02;;;10.60;;
70078;SDS011;57451;52.496;13.456;2023-03-01T01:23:50;20.92;;;9.93;;
70078;SDS011;57451;52.496;13.456;2023-03-01T01:26:18;22.85;;;9.90;;
70078;SDS011;57451;52.496;13.456;2023-03-01T01:28:46;20.55;;;9.95;;
70078;SDS011;57451;52.496;13.456;2023-03-01T01:31:14;27.27;;;10.60;;
70078;SDS011;57451;52.496;13.456;2023-03-01T01:33:43;21.38;;;10.05;;
70078;SDS011;57451;52.496;13.456;2023-03-01T01:36:11;21.50;;;9.53;;
70078;SDS011;57451;52.496;13.456;2023-03-01T01:38:39;21.23;;;9.95;;
70078;SDS011;57451;52.496;13.456;2023-03-01T01:41:06;20.40;;;9.55;;
70078;SDS011;57451;52.496;13.456;2023-03-01T01:43:34;22.02;;;9.93;;
70078;SDS011;57451;52.496;13.456;2023-03-01T01:46:03;20.87;;;9.63;;
70078;SDS011;57451;52.496;13.456;2023-03-01T01:48:34;20.80;;;9.40;;
70078;SDS011;57451;52.496;13.456;2023-03-01T01:51:10;20.08;;;9.50;;
70078;SDS011;57451;52.496;13.456;2023-03-01T01:53:40;23.55;;;10.13;;
70078;SDS011;57451;52.496;13.456;2023-03-01T01:56:10;19.27;;;9.43;;
70078;SDS011;57451;52.496;13.456;2023-03-01T01:58:40;19.63;;;9.52;;
70078;SDS011;57451;52.496;13.456;2023-03-01T02:01:10;20.92;;;9.80;;
70078;SDS011;57451;52.496;13.456;2023-03-01T02:03:39;20.77;;;9.93;;
70078;SDS011;57451;52.496;13.456;2023-03-01T02:06:13;23.87;;;10.27;;
70078;SDS011;57451;52.496;13.456;2023-03-01T02:08:45;20.45;;;10.40;;
70078;SDS011;57451;52.496;13.456;2023-03-01T02:11:15;22.08;;;9.52;;
70078;SDS011;57451;52.496;13.456;2023-03-01T02:13:47;22.38;;;9.90;;
70078;SDS011;57451;52.496;13.456;2023-03-01T02:16:15;19.80;;;9.77;;
70078;SDS011;57451;52.496;13.456;2023-03-01T02:18:44;19.20;;;9.50;;
70078;SDS011;57451;52.496;13.456;2023-03-01T02:21:17;20.50;;;9.75;;
70078;SDS011;57451;52.496;13.456;2023-03-01T02:23:56;24.23;;;9.82;;
70078;SDS011;57451;52.496;13.456;2023-03-01T02:26:29;25.63;;;10.83;;
70078;SDS011;57451;52.496;13.456;2023-03-01T02:29:03;23.20;;;10.00;;
70078;SDS011;57451;52.496;13.456;2023-03-01T02:31:32;19.92;;;9.65;;
70078;SDS011;57451;52.496;13.456;2023-03-01T02:34:11;20.85;;;9.93;;
70078;SDS011;57451;52.496;13.456;2023-03-01T02:36:42;18.60;;;8.93;;
70078;SDS011;57451;52.496;13.456;2023-03-01T02:39:12;22.40;;;9.95;;
70078;SDS011;57451;52.496;13.456;2023-03-01T02:41:46;24.17;;;10.00;;
70078;SDS011;57451;52.496;13.456;2023-03-01T02:44:17;20.40;;;9.85;;
70078;SDS011;57451;52.496;13.456;2023-03-01T02:46:46;22.37;;;10.17;;
70078;SDS011;57451;52.496;13.456;2023-03-01T02:49:18;22.13;;;9.73;;
70078;SDS011;57451;52.496;13.456;2023-03-01T02:51:52;21.98;;;10.30;;
70078;SDS011;57451;52.496;13.456;2023-03-01T02:54:28;21.65;;;9.98;;
70078;SDS011;57451;52.496;13.456;2023-03-01T02:57:00;19.75;;;10.27;;
70078;SDS011;57451;52.496;13.456;2023-03-01T02:59:32;20.60;;;10.18;;
70078;SDS011;57451;52.496;13.456;2023-03-01T03:02:06;20.30;;;10.48;;
70078;SDS011;57451;52.496;13.456;2023-03-01T03:04:34;22.15;;;10.73;;
70078;SDS011;57451;52.496;13.456;2023-03-01T03:07:01;27.27;;;10.37;;
70078;SDS011;57451;52.496;13.456;2023-03-01T03:09:28;19.10;;;10.13;;
70078;SDS011;57451;52.496;13.456;2023-03-01T03:11:56;22.58;;;10.73;;
70078;SDS011;57451;52.496;13.456;2023-03-01T03:14:23;19.63;;;10.45;;
70078;SDS011;57451;52.496;13.456;2023-03-01T03:16:52;22.60;;;10.90;;
70078;SDS011;57451;52.496;13.456;2023-03-01T03:19:19;20.08;;;10.57;;
70078;SDS011;57451;52.496;13.456;2023-03-01T03:21:47;20.58;;;9.95;;
70078;SDS011;57451;52.496;13.456;2023-03-01T03:24:14;21.10;;;10.40;;
70078;SDS011;57451;52.496;13.456;2023-03-01T03:26:41;21.77;;;11.17;;
70078;SDS011;57451;52.496;13.456;2023-03-01T03:29:08;25.65;;;10.55;;
70078;SDS011;57451;52.496;13.456;2023-03-01T03:31:35;23.38;;;10.45;;
70078;SDS011;57451;52.496;13.456;2023-03-01T03:34:04;23.42;;;10.18;;
70078;SDS011;57451;52.496;13.456;2023-03-01T03:36:31;20.20;;;10.50;;
70078;SDS011;57451;52.496;13.456;2023-03-01T03:38:59;23.75;;;11.27;;
70078;SDS011;57451;52.496;13.456;2023-03-01T03:41:26;21.73;;;10.65;;
70078;SDS011;57451;52.496;13.456;2023-03-01T03:43:53;18.80;;;9.07;;
70078;SDS011;57451;52.496;13.456;2023-03-01T03:46:20;21.00;;;10.00;;
70078;SDS011;57451;52.496;13.456;2023-03-01T03:48:48;23.58;;;10.55;;
70078;SDS011;57451;52.496;13.456;2023-03-01T03:51:17;25.13;;;11.57;;
70078;SDS011;57451;52.496;13.456;2023-03-01T03:53:45;22.10;;;10.80;;
70078;SDS011;57451;52.496;13.456;2023-03-01T03:56:12;22.10;;;10.17;;
70078;SDS011;57451;52.496;13.456;2023-03-01T03:58:40;25.15;;;10.38;;
70078;SDS011;57451;52.496;13.456;2023-03-01T04:01:07;22.02;;;10.55;;
70078;SDS011;57451;52.496;13.456;2023-03-01T04:03:34;21.45;;;10.45;;
70078;SDS011;57451;52.496;13.456;2023-03-01T04:06:02;21.57;;;10.83;;
70078;SDS011;57451;52.496;13.456;2023-03-01T04:08:31;22.73;;;10.70;;
70078;SDS011;57451;52.496;13.456;2023-03-01T04:11:00;18.17;;;10.48;;
70078;SDS011;57451;52.496;13.456;2023-03-01T04:13:48;25.77;;;11.00;;
70078;SDS011;57451;52.496;13.456;2023-03-01T04:16:16;22.20;;;11.10;;
70078;SDS011;57451;52.496;13.456;2023-03-01T04:18:44;23.30;;;11.57;;
70078;SDS011;57451;52.496;13.456;2023-03-01T04:21:13;23.05;;;11.80;;
70078;SDS011;57451;52.496;13.456;2023-03-01T04:23:42;25.38;;;11.23;;
70078;SDS011;57451;52.496;13.456;2023-03-01T04:26:09;25.98;;;11.70;;
70078;SDS011;57451;52.496;13.456;2023-03-01T04:28:37;23.20;;;11.18;;
70078;SDS011;57451;52.496;13.456;2023-03-01T04:31:07;26.05;;;11.52;;
70078;SDS011;57451;52.496;13.456;2023-03-01T04:33:44;21.30;;;11.30;;
70078;SDS011;57451;52.496;13.456;2023-03-01T04:36:13;20.05;;;11.07;;
70078;SDS011;57451;52.496;13.456;2023-03-01T04:38:43;22.48;;;11.18;;
70078;SDS011;57451;52.496;13.456;2023-03-01T04:41:15;23.25;;;11.57;;
70078;SDS011;57451;52.496;13.456;2023-03-01T04:43:43;23.73;;;10.60;;
70078;SDS011;57451;52.496;13.456;2023-03-01T04:46:11;23.67;;;11.50;;
70078;SDS011;57451;52.496;13.456;2023-03-01T04:48:41;26.92;;;11.50;;
70078;SDS011;57451;52.496;13.456;2023-03-01T04:51:11;23.70;;;12.25;;
70078;SDS011;57451;52.496;13.456;2023-03-01T04:53:40;23.00;;;11.18;;
70078;SDS011;57451;52.496;13.456;2023-03-01T04:56:09;27.13;;;11.98;;
70078;SDS011;57451;52.496;13.456;2023-03-01T04:58:37;24.73;;;12.25;;
70078;SDS011;57451;52.496;13.456;2023-03-01T05:01:08;24.77;;;12.43;;
70078;SDS011;57451;52.496;13.456;2023-03-01T05:03:42;27.17;;;12.68;;
70078;SDS011;57451;52.496;13.456;2023-03-01T05:06:10;26.73;;;11.15;;
70078;SDS011;57451;52.496;13.456;2023-03-01T05:08:38;25.17;;;12.30;;
70078;SDS011;57451;52.496;13.456;2023-03-01T05:11:05;26.80;;;12.53;;
70078;SDS011;57451;52.496;13.456;2023-03-01T05:13:36;24.65;;;11.88;;
70078;SDS011;57451;52.496;13.456;2023-03-01T05:16:06;24.33;;;12.10;;
70078;SDS011;57451;52.496;13.456;2023-03-01T05:18:38;28.23;;;13.00;;
70078;SDS011;57451;52.496;13.456;2023-03-01T05:21:07;24.93;;;12.17;;
70078;SDS011;57451;52.496;13.456;2023-03-01T05:23:36;26.25;;;12.73;;
70078;SDS011;57451;52.496;13.456;2023-03-01T05:26:04;24.67;;;12.95;;
70078;SDS011;57451;52.496;13.456;2023-03-01T05:28:38;28.77;;;12.18;;
70078;SDS011;57451;52.496;13.456;2023-03-01T05:31:06;21.13;;;12.33;;
70078;SDS011;57451;52.496;13.456;2023-03-01T05:33:36;25.90;;;11.80;;
70078;SDS011;57451;52.496;13.456;2023-03-01T05:36:04;24.98;;;12.48;;
70078;SDS011;57451;52.496;13.456;2023-03-01T05:38:32;23.17;;;12.85;;
70078;SDS011;57451;52.496;13.456;2023-03-01T05:41:00;23.25;;;11.88;;
70078;SDS011;57451;52.496;13.456;2023-03-01T05:43:29;26.95;;;13.05;;
70078;SDS011;57451;52.496;13.456;2023-03-01T05:46:01;29.88;;;12.90;;
70078;SDS011;57451;52.496;13.456;2023-03-01T05:48:29;29.77;;;12.80;;
70078;SDS011;57451;52.496;13.456;2023-03-01T05:50:57;27.90;;;13.00;;
70078;SDS011;57451;52.496;13.456;2023-03-01T05:53:26;25.45;;;12.80;;
70078;SDS011;57451;52.496;13.456;2023-03-01T05:55:54;25.48;;;13.27;;
70078;SDS011;57451;52.496;13.456;2023-03-01T05:58:21;23.10;;;12.50;;
70078;SDS011;57451;52.496;13.456;2023-03-01T06:00:48;25.42;;;12.52;;
70078;SDS011;57451;52.496;13.456;2023-03-01T06:03:17;27.35;;;13.05;;
70078;SDS011;57451;52.496;13.456;2023-03-01T06:05:45;25.52;;;12.35;;
70078;SDS011;57451;52.496;13.456;2023-03-01T06:08:12;23.23;;;10.98;;
70078;SDS011;57451;52.496;13.456;2023-03-01T06:10:40;29.67;;;12.02;;
70078;SDS011;57451;52.496;13.456;2023-03-01T06:13:07;26.77;;;12.27;;
70078;SDS011;57451;52.496;13.456;2023-03-01T06:15:35;26.70;;;12.30;;
70078;SDS011;57451;52.496;13.456;2023-03-01T06:18:02;24.02;;;11.38;;
70078;SDS011;57451;52.496;13.456;2023-03-01T06:20:31;27.27;;;11.68;;
70078;SDS011;57451;52.496;13.456;2023-03-01T06:22:58;27.30;;;12.30;;
70078;SDS011;57451;52.496;13.456;2023-03-01T06:25:26;26.83;;;12.02;;
70078;SDS011;57451;52.496;13.456;2023-03-01T06:27:54;24.00;;;12.15;;
70078;SDS011;57451;52.496;13.456;2023-03-01T06:30:22;26.20;;;12.77;;
70078;SDS011;57451;52.496;13.456;2023-03-01T06:32:51;22.93;;;11.47;;
70078;SDS011;57451;52.496;13.456;2023-03-01T06:35:19;27.80;;;12.10;;
70078;SDS011;57451;52.496;13.456;2023-03-01T06:37:48;24.17;;;11.00;;
70078;SDS011;57451;52.496;13.456;2023-03-01T06:40:15;26.63;;;12.88;;
70078;SDS011;57451;52.496;13.456;2023-03-01T06:42:43;26.08;;;12.68;;
70078;SDS011;57451;52.496;13.456;2023-03-01T06:45:15;23.67;;;12.57;;
70078;SDS011;57451;52.496;13.456;2023-03-01T06:47:44;24.48;;;12.45;;
70078;SDS011;57451;52.496;13.456;2023-03-01T06:50:12;31.57;;;13.27;;
70078;SDS011;57451;52.496;13.456;2023-03-01T06:52:40;27.88;;;12.50;;
70078;SDS011;57451;52.496;13.456;2023-03-01T06:55:09;21.25;;;10.43;;
70078;SDS011;57451;52.496;13.456;2023-03-01T06:57:37;22.63;;;11.70;;
70078;SDS011;57451;52.496;13.456;2023-03-01T07:00:05;24.30;;;12.13;;
70078;SDS011;57451;52.496;13.456;2023-03-01T07:02:33;20.75;;;11.60;;
70078;SDS011;57451;52.496;13.456;2023-03-01T07:05:01;26.55;;;13.05;;
70078;SDS011;57451;52.496;13.456;2023-03-01T07:07:28;26.02;;;14.27;;
70078;SDS011;57451;52.496;13.456;2023-03-01T07:09:55;26.08;;;12.20;;
70078;SDS011;57451;52.496;13.456;2023-03-01T07:12:24;25.38;;;12.50;;
70078;SDS011;57451;52.496;13.456;2023-03-01T07:14:51;25.48;;;12.60;;
70078;SDS011;57451;52.496;13.456;2023-03-01T07:17:18;28.03;;;12.53;;
70078;SDS011;57451;52.496;13.456;2023-03-01T07:19:45;27.55;;;13.38;;
70078;SDS011;57451;52.496;13.456;2023-03-01T07:22:12;28.13;;;14.32;;
70078;SDS011;57451;52.496;13.456;2023-03-01T07:24:40;30.55;;;13.95;;
70078;SDS011;57451;52.496;13.456;2023-03-01T07:27:07;23.67;;;13.63;;
70078;SDS011;57451;52.496;13.456;2023-03-01T07:29:36;26.45;;;14.05;;
70078;SDS011;57451;52.496;13.456;2023-03-01T07:32:04;25.95;;;14.32;;
70078;SDS011;57451;52.496;13.456;2023-03-01T07:34:32;25.92;;;14.27;;
70078;SDS011;57451;52.496;13.456;2023-03-01T07:36:59;27.77;;;15.10;;
70078;SDS011;57451;52.496;13.456;2023-03-01T07:39:26;29.33;;;14.57;;
70078;SDS011;57451;52.496;13.456;2023-03-01T07:41:54;29.63;;;14.57;;
70078;SDS011;57451;52.496;13.456;2023-03-01T07:44:22;24.92;;;15.20;;
70078;SDS011;57451;52.496;13.456;2023-03-01T07:46:50;28.13;;;15.05;;
70078;SDS011;57451;52.496;13.456;2023-03-01T07:49:22;32.57;;;15.67;;
70078;SDS011;57451;52.496;13.456;2023-03-01T07:51:50;28.83;;;15.05;;
70078;SDS011;57451;52.496;13.456;2023-03-01T07:54:17;31.35;;;15.95;;
70078;SDS011;57451;52.496;13.456;2023-03-01T07:56:44;31.77;;;15.50;;
70078;SDS011;57451;52.496;13.456;2023-03-01T07:59:12;28.60;;;15.85;;
70078;SDS011;57451;52.496;13.456;2023-03-01T08:01:39;30.70;;;15.27;;
70078;SDS011;57451;52.496;13.456;2023-03-01T08:04:08;28.67;;;15.68;;
70078;SDS011;57451;52.496;13.456;2023-03-01T08:06:35;28.33;;;15.23;;
70078;SDS011;57451;52.496;13.456;2023-03-01T08:09:03;26.33;;;14.07;;
70078;SDS011;57451;52.496;13.456;2023-03-01T08:11:31;25.92;;;15.20;;
70078;SDS011;57451;52.496;13.456;2023-03-01T08:13:58;32.43;;;14.00;;
70078;SDS011;57451;52.496;13.456;2023-03-01T08:16:26;29.70;;;13.55;;
70078;SDS011;57451;52.496;13.456;2023-03-01T08:18:53;25.13;;;13.32;;
70078;SDS011;57451;52.496;13.456;2023-03-01T08:21:24;24.52;;;14.43;;
70078;SDS011;57451;52.496;13.456;2023-03-01T08:23:51;24.17;;;12.35;;
70078;SDS011;57451;52.496;13.456;2023-03-01T08:26:19;21.07;;;11.87;;
70078;SDS011;57451;52.496;13.456;2023-03-01T08:28:47;28.27;;;12.38;;
70078;SDS011;57451;52.496;13.456;2023-03-01T08:31:17;25.98;;;12.90;;
70078;SDS011;57451;52.496;13.456;2023-03-01T08:33:45;23.42;;;12.35;;
70078;SDS011;57451;52.496;13.456;2023-03-01T08:36:18;21.17;;;11.55;;
70078;SDS011;57451;52.496;13.456;2023-03-01T08:38:47;20.53;;;10.57;;
70078;SDS011;57451;52.496;13.456;2023-03-01T08:41:15;22.40;;;11.35;;
70078;SDS011;57451;52.496;13.456;2023-03-01T08:43:42;18.52;;;10.07;;
70078;SDS011;57451;52.496;13.456;2023-03-01T08:46:10;17.58;;;9.25;;
70078;SDS011;57451;52.496;13.456;2023-03-01T08:48:37;14.05;;;8.23;;
70078;SDS011;57451;52.496;13.456;2023-03-01T08:51:08;14.87;;;7.70;;
70078;SDS011;57451;52.496;13.456;2023-03-01T08:53:36;15.10;;;7.57;;
70078;SDS011;57451;52.496;13.456;2023-03-01T08:56:05;15.18;;;7.78;;
70078;SDS011;57451;52.496;13.456;2023-03-01T08:58:33;16.17;;;8.00;;
70078;SDS011;57451;52.496;13.456;2023-03-01T09:01:04;16.65;;;7.80;;
70078;SDS011;57451;52.496;13.456;2023-03-01T09:03:33;14.97;;;7.63;;
70078;SDS011;57451;52.496;13.456;2023-03-01T09:06:01;13.70;;;8.07;;
70078;SDS011;57451;52.496;13.456;2023-03-01T09:08:30;15.98;;;7.72;;
70078;SDS011;57451;52.496;13.456;2023-03-01T09:10:57;13.70;;;8.18;;
70078;SDS011;57451;52.496;13.456;2023-03-01T09:13:29;13.88;;;8.10;;
70078;SDS011;57451;52.496;13.456;2023-03-01T09:15:59;14.27;;;7.77;;
70078;SDS011;57451;52.496;13.456;2023-03-01T09:18:28;13.90;;;7.45;;
70078;SDS011;57451;52.496;13.456;2023-03-01T09:21:00;14.65;;;7.68;;
70078;SDS011;57451;52.496;13.456;2023-03-01T09:23:28;15.55;;;7.25;;
70078;SDS011;57451;52.496;13.456;2023-03-01T09:25:55;12.15;;;6.95;;
70078;SDS011;57451;52.496;13.456;2023-03-01T09:28:22;16.43;;;7.67;;
70078;SDS011;57451;52.496;13.456;2023-03-01T09:30:58;12.32;;;7.43;;
70078;SDS011;57451;52.496;13.456;2023-03-01T09:33:26;13.60;;;7.45;;
70078;SDS011;57451;52.496;13.456;2023-03-01T09:35:57;12.55;;;6.78;;
70078;SDS011;57451;52.496;13.456;2023-03-01T09:38:25;13.18;;;7.28;;
70078;SDS011;57451;52.496;13.456;2023-03-01T09:40:53;10.33;;;6.93;;
70078;SDS011;57451;52.496;13.456;2023-03-01T09:43:21;16.33;;;7.60;;
70078;SDS011;57451;52.496;13.456;2023-03-01T09:45:52;12.73;;;7.22;;
70078;SDS011;57451;52.496;13.456;2023-03-01T09:48:24;14.40;;;8.10;;
70078;SDS011;57451;52.496;13.456;2023-03-01T09:50:54;13.27;;;7.25;;
70078;SDS011;57451;52.496;13.456;2023-03-01T09:53:23;11.03;;;6.23;;
70078;SDS011;57451;52.496;13.456;2023-03-01T09:55:54;10.50;;;6.68;;
70078;SDS011;57451;52.496;13.456;2023-03-01T09:58:29;11.93;;;6.88;;
70078;SDS011;57451;52.496;13.456;2023-03-01T10:01:05;12.93;;;6.88;;
70078;SDS011;57451;52.496;13.456;2023-03-01T10:03:59;12.13;;;6.90;;
70078;SDS011;57451;52.496;13.456;2023-03-01T10:06:49;11.03;;;6.03;;
70078;SDS011;57451;52.496;13.456;2023-03-01T10:09:29;11.70;;;5.38;;
70078;SDS011;57451;52.496;13.456;2023-03-01T10:12:00;8.68;;;4.90;;
70078;SDS011;57451;52.496;13.456;2023-03-01T10:14:32;8.63;;;4.80;;
70078;SDS011;57451;52.496;13.456;2023-03-01T10:17:04;11.45;;;5.32;;
70078;SDS011;57451;52.496;13.456;2023-03-01T10:19:38;7.50;;;4.33;;
70078;SDS011;57451;52.496;13.456;2023-03-01T10:22:10;8.65;;;4.70;;
70078;SDS011;57451;52.496;13.456;2023-03-01T10:24:40;9.13;;;4.50;;
70078;SDS011;57451;52.496;13.456;2023-03-01T10:27:09;10.20;;;4.93;;
70078;SDS011;57451;52.496;13.456;2023-03-01T10:29:44;8.02;;;4.47;;
70078;SDS011;57451;52.496;13.456;2023-03-01T10:32:17;8.73;;;4.70;;
70078;SDS011;57451;52.496;13.456;2023-03-01T10:34:46;7.65;;;4.38;;
70078;SDS011;57451;52.496;13.456;2023-03-01T10:37:14;10.30;;;4.38;;
70078;SDS011;57451;52.496;13.456;2023-03-01T10:39:55;9.88;;;4.57;;
70078;SDS011;57451;52.496;13.456;2023-03-01T10:42:25;9.63;;;5.30;;
70078;SDS011;57451;52.496;13.456;2023-03-01T10:44:55;9.03;;;5.07;;
70078;SDS011;57451;52.496;13.456;2023-03-01T10:47:23;7.47;;;4.40;;
70078;SDS011;57451;52.496;13.456;2023-03-01T10:49:55;8.38;;;4.75;;
70078;SDS011;57451;52.496;13.456;2023-03-01T10:52:25;9.88;;;5.13;;
70078;SDS011;57451;52.496;13.456;2023-03-01T10:54:56;7.90;;;4.60;;
70078;SDS011;57451;52.496;13.456;2023-03-01T10:57:27;9.90;;;4.57;;
70078;SDS011;57451;52.496;13.456;2023-03-01T11:00:22;8.35;;;4.30;;
70078;SDS011;57451;52.496;13.456;2023-03-01T11:03:01;7.88;;;4.88;;
70078;SDS011;57451;52.496;13.456;2023-03-01T11:05:39;7.72;;;4.30;;
70078;SDS011;57451;52.496;13.456;2023-03-01T11:08:31;7.97;;;4.30;;
70078;SDS011;57451;52.496;13.456;2023-03-01T11:11:04;8.23;;;4.20;;
70078;SDS011;57451;52.496;13.456;2023-03-01T11:13:46;8.35;;;4.25;;
70078;SDS011;57451;52.496;13.456;2023-03-01T11:16:23;8.25;;;4.72;;
70078;SDS011;57451;52.496;13.456;2023-03-01T11:19:16;6.80;;;4.43;;
70078;SDS011;57451;52.496;13.456;2023-03-01T11:21:55;8.15;;;4.40;;
70078;SDS011;57451;52.496;13.456;2023-03-01T11:24:29;7.20;;;3.80;;
70078;SDS011;57451;52.496;13.456;2023-03-01T11:27:01;7.40;;;3.90;;
70078;SDS011;57451;52.496;13.456;2023-03-01T11:29:32;8.48;;;3.90;;
70078;SDS011;57451;52.496;13.456;2023-03-01T11:32:14;7.38;;;3.42;;
70078;SDS011;57451;52.496;13.456;2023-03-01T11:34:42;6.40;;;3.55;;
70078;SDS011;57451;52.496;13.456;2023-03-01T11:37:19;6.57;;;3.30;;
70078;SDS011;57451;52.496;13.456;2023-03-01T11:39:54;6.53;;;3.30;;
70078;SDS011;57451;52.496;13.456;2023-03-01T11:42:28;5.85;;;3.30;;
70078;SDS011;57451;52.496;13.456;2023-03-01T11:45:06;7.20;;;3.78;;
70078;SDS011;57451;52.496;13.456;2023-03-01T11:47:40;6.15;;;3.38;;
70078;SDS011;57451;52.496;13.456;2023-03-01T11:50:20;6.63;;;3.53;;
70078;SDS011;57451;52.496;13.456;2023-03-01T11:53:00;6.43;;;3.00;;
70078;SDS011;57451;52.496;13.456;2023-03-01T11:55:44;6.63;;;3.33;;
70078;SDS011;57451;52.496;13.456;2023-03-01T11:58:26;7.85;;;3.53;;
70078;SDS011;57451;52.496;13.456;2023-03-01T12:01:08;7.32;;;3.55;;
70078;SDS011;57451;52.496;13.456;2023-03-01T12:06:59;6.25;;;3.17;;
70078;SDS011;57451;52.496;13.456;2023-03-01T12:09:36;7.05;;;3.72;;
70078;SDS011;57451;52.496;13.456;2023-03-01T12:12:19;7.70;;;3.58;;
70078;SDS011;57451;52.496;13.456;2023-03-01T12:15:20;5.90;;;2.85;;
70078;SDS011;57451;52.496;13.456;2023-03-01T12:18:10;5.23;;;2.63;;
70078;SDS011;57451;52.496;13.456;2023-03-01T12:20:49;7.97;;;2.97;;
70078;SDS011;57451;52.496;13.456;2023-03-01T12:23:33;7.13;;;2.83;;
70078;SDS011;57451;52.496;13.456;2023-03-01T12:26:17;5.20;;;2.35;;
70078;SDS011;57451;52.496;13.456;2023-03-01T12:28:51;6.72;;;2.60;;
70078;SDS011;57451;52.496;13.456;2023-03-01T12:34:55;5.22;;;2.40;;
70078;SDS011;57451;52.496;13.456;2023-03-01T12:37:47;5.50;;;2.53;;
70078;SDS011;57451;52.496;13.456;2023-03-01T12:40:29;7.35;;;2.63;;
70078;SDS011;57451;52.496;13.456;2023-03-01T12:43:13;4.65;;;2.33;;
70078;SDS011;57451;52.496;13.456;2023-03-01T12:45:50;7.03;;;2.63;;
70078;SDS011;57451;52.496;13.456;2023-03-01T12:48:27;5.28;;;2.70;;
70078;SDS011;57451;52.496;13.456;2023-03-01T12:51:03;5.15;;;2.60;;
70078;SDS011;57451;52.496;13.456;2023-03-01T12:53:34;4.72;;;2.60;;
70078;SDS011;57451;52.496;13.456;2023-03-01T12:56:05;6.00;;;2.72;;
70078;SDS011;57451;52.496;13.456;2023-03-01T12:58:35;6.13;;;2.57;;
70078;SDS011;57451;52.496;13.456;2023-03-01T13:01:19;6.07;;;2.65;;
70078;SDS011;57451;52.496;13.456;2023-03-01T13:04:00;6.35;;;2.60;;
70078;SDS011;57451;52.496;13.456;2023-03-01T13:06:49;5.28;;;2.80;;
70078;SDS011;57451;52.496;13.456;2023-03-01T13:09:23;7.28;;;2.70;;
70078;SDS011;57451;52.496;13.456;2023-03-01T13:11:57;5.93;;;2.60;;
70078;SDS011;57451;52.496;13.456;2023-03-01T13:14:38;5.43;;;2.65;;
70078;SDS011;57451;52.496;13.456;2023-03-01T13:17:31;7.03;;;2.65;;
70078;SDS011;57451;52.496;13.456;2023-03-01T13:20:00;6.70;;;2.88;;
70078;SDS011;57451;52.496;13.456;2023-03-01T13:22:29;4.95;;;2.60;;
70078;SDS011;57451;52.496;13.456;2023-03-01T13:25:02;5.20;;;2.40;;
70078;SDS011;57451;52.496;13.456;2023-03-01T13:27:40;5.35;;;2.45;;
70078;SDS011;57451;52.496;13.456;2023-03-01T13:30:37;5.25;;;2.53;;
70078;SDS011;57451;52.496;13.456;2023-03-01T13:36:00;6.05;;;2.28;;
70078;SDS011;57451;52.496;13.456;2023-03-01T13:38:38;5.90;;;2.10;;
70078;SDS011;57451;52.496;13.456;2023-03-01T13:41:12;5.78;;;2.25;;
70078;SDS011;57451;52.496;13.456;2023-03-01T13:43:41;4.63;;;2.20;;
70078;SDS011;57451;52.496;13.456;2023-03-01T13:46:12;5.80;;;2.58;;
70078;SDS011;57451;52.496;13.456;2023-03-01T13:48:45;4.70;;;2.58;;
70078;SDS011;57451;52.496;13.456;2023-03-01T13:51:20;6.17;;;2.63;;
70078;SDS011;57451;52.496;13.456;2023-03-01T13:53:50;6.28;;;2.67;;
70078;SDS011;57451;52.496;13.456;2023-03-01T13:56:20;5.55;;;2.70;;
70078;SDS011;57451;52.496;13.456;2023-03-01T13:58:51;6.07;;;2.70;;
70078;SDS011;57451;52.496;13.456;2023-03-01T14:01:23;7.28;;;2.92;;
70078;SDS011;57451;52.496;13.456;2023-03-01T14:03:53;6.23;;;2.63;;
70078;SDS011;57451;52.496;13.456;2023-03-01T14:06:21;5.70;;;2.78;;
70078;SDS011;57451;52.496;13.456;2023-03-01T14:08:50;6.00;;;2.70;;
70078;SDS011;57451;52.496;13.456;2023-03-01T14:11:30;5.47;;;2.55;;
70078;SDS011;57451;52.496;13.456;2023-03-01T14:14:29;4.75;;;2.55;;
70078;SDS011;57451;52.496;13.456;2023-03-01T14:17:08;4.77;;;2.27;;
70078;SDS011;57451;52.496;13.456;2023-03-01T14:19:45;5.28;;;2.65;;
70078;SDS011;57451;52.496;13.456;2023-03-01T14:22:16;6.57;;;3.10;;
70078;SDS011;57451;52.496;13.456;2023-03-01T14:24:49;6.30;;;2.90;;
70078;SDS011;57451;52.496;13.456;2023-03-01T14:27:18;6.22;;;3.13;;
70078;SDS011;57451;52.496;13.456;2023-03-01T14:29:53;6.40;;;2.83;;
70078;SDS011;57451;52.496;13.456;2023-03-01T14:32:24;5.68;;;2.70;;
70078;SDS011;57451;52.496;13.456;2023-03-01T14:34:53;5.50;;;2.60;;
70078;SDS011;57451;52.496;13.456;2023-03-01T14:37:22;7.78;;;2.65;;
70078;SDS011;57451;52.496;13.456;2023-03-01T14:39:52;6.22;;;2.60;;
70078;SDS011;57451;52.496;13.456;2023-03-01T14:42:20;5.40;;;2.67;;
70078;SDS011;57451;52.496;13.456;2023-03-01T14:44:50;7.50;;;2.67;;
70078;SDS011;57451;52.496;13.456;2023-03-01T14:47:21;6.53;;;2.50;;
70078;SDS011;57451;52.496;13.456;2023-03-01T14:49:56;5.80;;;2.70;;
70078;SDS011;57451;52.496;13.456;2023-03-01T14:52:28;5.35;;;2.75;;